Time;durP1;ratioP1;P1;durP2;ratioP2;P2;SDS_P1;SDS_P2;PMS_P1;PMS_P2;Temp;Humidity;BMP_temperature;BMP_pressure;BME280_temperature;BME280_humidity;BME280_pressure;Samples;Min_cycle;Max_cycle;Signal;HPM_P1;HPM_P2
2022/09/09 00:01:32;;;;;;;1.33;1.00;;;15.70;27.30;;;;;;5043194;28;34367;-77
2022/09/09 00:04:16;;;;;;;7.03;1.50;;;15.70;27.90;;;;;;5043624;28;34267;-77
2022/09/09 00:06:49;;;;;;;3.92;1.10;;;15.60;27.80;;;;;;5009279;28;35832;-77
2022/09/09 00:09:18;;;;;;;1.67;1.00;;;15.60;27.30;;;;;;5025594;28;34821;-77
2022/09/09 00:12:03;;;;;;;2.80;1.13;;;15.60;27.50;;;;;;5009397;28;34384;-77
2022/09/09 00:14:43;;;;;;;1.92;1.15;;;15.60;27.90;;;;;;5043256;28;34097;-77
2022/09/09 00:17:15;;;;;;;3.63;1.10;;;15.50;27.80;;;;;;5025068;28;35578;-77
2022/09/09 00:19:53;;;;;;;2.05;1.10;;;15.50;27.50;;;;;;5026841;28;34114;-77
2022/09/09 00:22:22;;;;;;;1.13;1.02;;;15.50;27.80;;;;;;5005475;28;34016;-77
2022/09/09 00:24:53;;;;;;;2.45;1.13;;;15.50;28.00;;;;;;5022250;28;34089;-76
2022/09/09 00:27:37;;;;;;;1.45;0.70;;;15.50;28.10;;;;;;5005275;28;35840;-77
2022/09/09 00:30:24;;;;;;;2.83;1.20;;;15.50;28.00;;;;;;5007347;28;34183;-76
2022/09/09 00:32:54;;;;;;;5.80;1.15;;;15.50;29.00;;;;;;5009184;28;34295;-76
2022/09/09 00:35:33;;;;;;;1.98;1.15;;;15.50;27.90;;;;;;5023663;28;34050;-77
2022/09/09 00:38:12;;;;;;;1.17;0.88;;;15.50;28.40;;;;;;4989889;28;36154;-76
2022/09/09 00:41:09;;;;;;;2.95;1.10;;;15.50;27.80;;;;;;5022231;28;34478;-77
2022/09/09 00:43:38;;;;;;;1.65;1.00;;;15.50;28.90;;;;;;5005207;28;34094;-77
2022/09/09 00:46:33;;;;;;;2.65;1.00;;;15.50;27.90;;;;;;5024918;28;34068;-77
2022/09/09 00:49:25;;;;;;;1.13;0.98;;;15.60;28.80;;;;;;5026507;28;34345;-77
2022/09/09 00:52:21;;;;;;;1.10;0.90;;;15.60;28.60;;;;;;5025625;28;34086;-76
2022/09/09 00:55:11;;;;;;;2.53;0.77;;;15.60;28.80;;;;;;5009063;28;34329;-77
2022/09/09 00:57:38;;;;;;;1.58;1.10;;;15.60;28.30;;;;;;5009261;28;34418;-77
2022/09/09 01:00:22;;;;;;;1.05;0.70;;;15.60;27.70;;;;;;5025107;28;35608;-77
2022/09/09 01:03:17;;;;;;;3.03;0.90;;;15.50;28.50;;;;;;5008980;28;34158;-77
2022/09/09 01:06:04;;;;;;;3.45;1.20;;;15.50;28.60;;;;;;5025405;28;34349;-76
2022/09/09 01:09:01;;;;;;;7.32;0.90;;;15.50;28.20;;;;;;5011219;28;34265;-76
2022/09/09 01:11:47;;;;;;;1.25;1.00;;;15.50;28.40;;;;;;5026061;28;35091;-77
2022/09/09 01:14:47;;;;;;;5.70;1.20;;;15.40;27.90;;;;;;5008550;28;34162;-77
2022/09/09 01:17:23;;;;;;;1.60;0.70;;;15.40;28.30;;;;;;5026177;28;34155;-76
2022/09/09 01:20:09;;;;;;;2.47;0.85;;;15.40;28.20;;;;;;5025164;28;34520;-77
2022/09/09 01:22:56;;;;;;;2.60;1.00;;;15.30;28.80;;;;;;5025084;28;35959;-76
2022/09/09 01:25:57;;;;;;;1.45;0.98;;;15.30;27.80;;;;;;5008520;28;34185;-77
2022/09/09 01:28:27;;;;;;;2.78;0.80;;;15.30;28.70;;;;;;5013715;28;34267;-77
2022/09/09 01:30:55;;;;;;;0.70;0.70;;;15.30;27.90;;;;;;4992390;28;34433;-77
2022/09/09 01:33:21;;;;;;;0.73;0.73;;;15.30;27.70;;;;;;5008663;28;34326;-77
2022/09/09 01:35:58;;;;;;;2.00;0.90;;;15.30;28.00;;;;;;5008528;28;34197;-76
2022/09/09 01:38:25;;;;;;;1.85;0.80;;;15.30;28.40;;;;;;5024600;28;34098;-77
2022/09/09 01:40:52;;;;;;;2.63;1.13;;;15.30;28.00;;;;;;5008692;28;34424;-77
2022/09/09 01:43:21;;;;;;;5.93;1.00;;;15.30;28.20;;;;;;5024139;28;35956;-77
2022/09/09 01:45:50;;;;;;;4.43;0.98;;;15.30;27.90;;;;;;5008307;28;34264;-77
2022/09/09 01:48:18;;;;;;;0.95;0.80;;;15.30;27.70;;;;;;5025921;28;34085;-77
2022/09/09 01:50:44;;;;;;;0.90;0.90;;;15.40;27.80;;;;;;5007886;28;34003;-77
2022/09/09 01:53:12;;;;;;;4.00;0.88;;;15.30;27.80;;;;;;5007954;28;35616;-76
2022/09/09 01:55:40;;;;;;;3.25;0.93;;;15.40;27.80;;;;;;5008110;28;34081;-76
2022/09/09 01:58:32;;;;;;;3.13;0.90;;;15.30;27.80;;;;;;5024449;28;34110;-77
2022/09/09 02:01:09;;;;;;;2.03;0.80;;;15.30;27.70;;;;;;5011414;28;34300;-77
2022/09/09 02:03:36;;;;;;;1.38;0.98;;;15.30;28.00;;;;;;5024279;28;36315;-77
2022/09/09 02:06:32;;;;;;;1.33;0.90;;;15.30;27.70;;;;;;5008152;28;34175;-77
2022/09/09 02:09:02;;;;;;;4.63;1.17;;;15.40;28.80;;;;;;5007909;28;34180;-77
2022/09/09 02:11:30;;;;;;;2.05;1.10;;;15.40;28.00;;;;;;5007993;28;34595;-77
2022/09/09 02:14:08;;;;;;;2.55;0.90;;;15.40;27.50;;;;;;5025632;28;34318;-77
2022/09/09 02:16:41;;;;;;;2.97;1.25;;;15.40;28.20;;;;;;5008047;28;34213;-77
2022/09/09 02:19:16;;;;;;;1.30;0.85;;;15.40;28.00;;;;;;5024118;28;34140;-77
2022/09/09 02:21:45;;;;;;;1.20;1.08;;;15.40;27.90;;;;;;5008175;28;34124;-77
2022/09/09 02:24:14;;;;;;;1.63;1.10;;;15.50;28.00;;;;;;5023998;28;35520;-77
2022/09/09 02:26:44;;;;;;;4.10;1.00;;;15.50;28.20;;;;;;5007839;28;34036;-77
2022/09/09 02:29:15;;;;;;;2.17;1.05;;;15.50;28.00;;;;;;5007337;28;34096;-77
2022/09/09 02:31:44;;;;;;;1.52;0.90;;;15.50;28.20;;;;;;5025452;28;34134;-77
2022/09/09 02:34:11;;;;;;;1.10;0.93;;;15.50;28.20;;;;;;5023555;28;35760;-77
2022/09/09 02:36:43;;;;;;;3.05;1.23;;;15.60;28.30;;;;;;5007188;28;34428;-77
2022/09/09 02:39:10;;;;;;;4.18;0.90;;;15.60;28.20;;;;;;5007603;28;34114;-78
2022/09/09 02:41:39;;;;;;;4.25;1.10;;;15.60;28.20;;;;;;5024344;28;34177;-77
2022/09/09 02:44:16;;;;;;;1.80;0.85;;;15.60;28.10;;;;;;5006858;28;35758;-78
2022/09/09 02:46:58;;;;;;;1.90;0.85;;;15.60;28.20;;;;;;5007925;28;34006;-77
2022/09/09 02:49:37;;;;;;;4.32;1.02;;;15.60;28.70;;;;;;5023588;28;34157;-77
2022/09/09 02:52:08;;;;;;;6.97;1.10;;;15.70;28.70;;;;;;5023853;28;34052;-77
2022/09/09 02:54:38;;;;;;;2.03;1.00;;;15.70;28.60;;;;;;5007267;28;35931;-77
2022/09/09 02:57:12;;;;;;;1.30;0.88;;;15.70;28.40;;;;;;5007552;28;34098;-77
2022/09/09 02:59:39;;;;;;;4.00;1.27;;;15.80;29.10;;;;;;5023645;28;34068;-77
2022/09/09 03:02:05;;;;;;;2.08;1.00;;;15.70;28.40;;;;;;5007300;28;34498;-77
2022/09/09 03:04:31;;;;;;;1.15;0.93;;;15.70;28.30;;;;;;5007298;28;35945;-77
2022/09/09 03:06:58;;;;;;;1.50;0.90;;;15.80;28.60;;;;;;5007324;28;34307;-77
2022/09/09 03:09:25;;;;;;;3.92;1.10;;;15.80;28.50;;;;;;5006240;28;34154;-77
2022/09/09 03:11:52;;;;;;;2.15;1.10;;;15.80;28.70;;;;;;5025024;28;34100;-77
2022/09/09 03:14:21;;;;;;;1.00;0.90;;;15.80;28.60;;;;;;5023136;28;35909;-77
2022/09/09 03:16:48;;;;;;;3.10;0.90;;;15.80;28.60;;;;;;5019055;28;34186;-77
2022/09/09 03:19:14;;;;;;;0.85;0.85;;;15.80;28.30;;;;;;5026119;28;34181;-78
2022/09/09 03:21:40;;;;;;;1.63;1.00;;;15.80;28.50;;;;;;4993872;28;34076;-77
2022/09/09 03:24:06;;;;;;;3.70;1.13;;;15.80;28.60;;;;;;5010007;28;35813;-77
2022/09/09 03:26:33;;;;;;;3.47;1.00;;;15.80;28.50;;;;;;4994177;28;34080;-77
2022/09/09 03:29:00;;;;;;;3.33;0.85;;;15.90;28.60;;;;;;5026587;28;34205;-77
2022/09/09 03:31:29;;;;;;;4.20;1.13;;;15.90;29.00;;;;;;5010320;28;34066;-77
2022/09/09 03:33:58;;;;;;;2.30;1.00;;;15.90;28.70;;;;;;5009595;28;36461;-77
2022/09/09 03:36:26;;;;;;;1.25;1.10;;;15.90;28.90;;;;;;4993911;28;34230;-77
2022/09/09 03:38:52;;;;;;;3.08;0.95;;;15.90;28.80;;;;;;4993954;28;34079;-77
2022/09/09 03:41:18;;;;;;;2.47;1.30;;;16.00;28.80;;;;;;5026595;28;34197;-77
2022/09/09 03:43:44;;;;;;;1.17;1.08;;;15.90;28.90;;;;;;5009462;28;36374;-77
2022/09/09 03:46:10;;;;;;;2.10;1.30;;;16.00;28.80;;;;;;5025918;28;34280;-77
2022/09/09 03:48:36;;;;;;;2.13;1.40;;;16.00;29.00;;;;;;5026839;28;34195;-77
2022/09/09 03:51:02;;;;;;;4.05;1.45;;;16.00;29.20;;;;;;5026102;28;34030;-78
2022/09/09 03:53:29;;;;;;;2.22;1.52;;;16.00;28.70;;;;;;5004401;28;34443;-77
2022/09/09 03:55:59;;;;;;;3.25;1.50;;;16.00;28.80;;;;;;5007788;28;34023;-77
2022/09/09 03:58:27;;;;;;;2.60;1.50;;;16.00;28.90;;;;;;5006764;28;34474;-77
2022/09/09 04:00:55;;;;;;;2.55;1.20;;;16.10;28.90;;;;;;5024004;28;33999;-77
2022/09/09 04:03:22;;;;;;;4.65;1.30;;;16.00;28.90;;;;;;4990351;28;34141;-77
2022/09/09 04:05:51;;;;;;;2.90;1.55;;;16.00;29.40;;;;;;5024351;28;34149;-77
2022/09/09 04:08:18;;;;;;;1.42;1.10;;;16.00;28.80;;;;;;5023966;28;34241;-77
2022/09/09 04:10:47;;;;;;;1.77;1.10;;;16.00;28.90;;;;;;4990197;28;34127;-77
2022/09/09 04:13:17;;;;;;;1.50;1.40;;;16.00;29.30;;;;;;5005916;28;36251;-77
2022/09/09 04:15:49;;;;;;;3.35;1.30;;;16.00;29.40;;;;;;5008259;28;34225;-77
2022/09/09 04:18:15;;;;;;;2.13;1.13;;;16.00;28.90;;;;;;5006061;28;34113;-77
2022/09/09 04:20:43;;;;;;;1.83;1.15;;;16.00;29.20;;;;;;5005647;28;34152;-77
2022/09/09 04:23:09;;;;;;;3.55;1.05;;;16.10;29.10;;;;;;5006172;28;34101;-77
2022/09/09 04:25:35;;;;;;;5.18;1.30;;;16.00;29.00;;;;;;5021332;28;34160;-77
2022/09/09 04:28:02;;;;;;;3.00;1.30;;;16.00;29.30;;;;;;5024159;28;34359;-77
2022/09/09 04:30:28;;;;;;;2.75;1.30;;;16.00;29.60;;;;;;5006068;28;34163;-78
2022/09/09 04:32:54;;;;;;;1.13;1.02;;;16.10;29.10;;;;;;5016480;28;36401;-77
2022/09/09 04:35:20;;;;;;;1.58;1.30;;;16.10;29.40;;;;;;4986010;28;34523;-77
2022/09/09 04:37:46;;;;;;;3.22;1.23;;;16.10;29.20;;;;;;4985993;28;34168;-77
2022/09/09 04:40:12;;;;;;;1.90;1.10;;;16.10;29.10;;;;;;5018292;28;34149;-77
2022/09/09 04:42:39;;;;;;;3.95;1.35;;;16.10;29.30;;;;;;4991306;28;36505;-76
2022/09/09 04:45:06;;;;;;;4.35;1.20;;;16.10;29.70;;;;;;5026113;28;34143;-77
2022/09/09 04:47:35;;;;;;;1.73;1.20;;;16.20;29.60;;;;;;5025760;28;34181;-76
2022/09/09 04:50:01;;;;;;;9.70;1.48;;;16.20;29.80;;;;;;5043237;28;34006;-77
2022/09/09 04:52:26;;;;;;;2.95;1.13;;;16.30;29.90;;;;;;5009316;28;35753;-77
2022/09/09 04:54:53;;;;;;;2.67;0.80;;;16.30;29.60;;;;;;5008819;28;34076;-77
2022/09/09 04:57:20;;;;;;;2.47;1.08;;;16.30;29.30;;;;;;5034281;28;34125;-77
2022/09/09 04:59:46;;;;;;;2.38;1.00;;;16.30;29.70;;;;;;5042331;28;34271;-77
2022/09/09 05:02:12;;;;;;;2.70;1.00;;;16.30;29.40;;;;;;5012231;28;36306;-77
2022/09/09 05:04:38;;;;;;;3.60;1.25;;;16.40;29.10;;;;;;5024982;28;34316;-77
2022/09/09 05:07:03;;;;;;;3.83;1.15;;;16.40;29.10;;;;;;5024620;28;34460;-77
2022/09/09 05:09:30;;;;;;;2.83;1.20;;;16.40;29.30;;;;;;5009018;28;34316;-78
2022/09/09 05:11:58;;;;;;;5.80;1.20;;;16.50;29.30;;;;;;5029488;28;34274;-79
2022/09/09 05:14:24;;;;;;;4.18;1.48;;;16.50;29.30;;;;;;5047610;28;34173;-79
2022/09/09 05:16:51;;;;;;;4.50;1.20;;;16.50;29.10;;;;;;5009998;28;34187;-77
2022/09/09 05:19:18;;;;;;;11.68;1.60;;;16.50;29.30;;;;;;5025159;28;34426;-77
2022/09/09 05:21:45;;;;;;;2.55;0.85;;;16.50;29.20;;;;;;5041813;28;34287;-77
2022/09/09 05:24:11;;;;;;;3.80;1.20;;;16.60;29.10;;;;;;5024469;28;34156;-77
2022/09/09 05:26:37;;;;;;;3.47;1.08;;;16.60;29.00;;;;;;5008884;28;34187;-77
2022/09/09 05:29:03;;;;;;;8.55;0.90;;;16.60;29.00;;;;;;5042950;28;34160;-77
2022/09/09 05:31:30;;;;;;;4.07;1.58;;;16.60;28.90;;;;;;5025235;28;34222;-77
2022/09/09 05:34:01;;;;;;;2.30;1.00;;;16.60;28.60;;;;;;5029332;28;34126;-76
2022/09/09 05:36:27;;;;;;;6.00;1.27;;;16.60;28.20;;;;;;5028234;28;34162;-77
2022/09/09 05:38:53;;;;;;;6.63;1.52;;;16.70;28.80;;;;;;5012004;28;34087;-76
2022/09/09 05:41:19;;;;;;;6.03;1.30;;;16.70;28.40;;;;;;5028271;28;34357;-77
2022/09/09 05:43:48;;;;;;;1.45;0.80;;;16.70;28.10;;;;;;5011321;28;34229;-77
2022/09/09 05:46:18;;;;;;;3.53;1.00;;;16.70;28.10;;;;;;5027900;28;34327;-76
2022/09/09 05:48:46;;;;;;;3.80;1.20;;;16.70;28.70;;;;;;5045577;28;34084;-76
2022/09/09 05:51:15;;;;;;;2.05;1.25;;;16.80;28.20;;;;;;5045511;28;34904;-76
2022/09/09 05:53:42;;;;;;;4.78;1.25;;;16.80;28.30;;;;;;5027733;28;34097;-76
2022/09/09 05:56:12;;;;;;;3.58;1.20;;;16.80;28.30;;;;;;5027889;28;34190;-76
2022/09/09 05:58:38;;;;;;;4.13;1.35;;;16.80;28.10;;;;;;5028066;28;34394;-76
2022/09/09 06:01:09;;;;;;;4.63;1.00;;;16.80;27.90;;;;;;5027620;28;35716;-77
2022/09/09 06:03:37;;;;;;;4.57;1.10;;;16.80;27.90;;;;;;5012102;28;34123;-77
2022/09/09 06:06:08;;;;;;;2.33;0.75;;;16.90;28.20;;;;;;5011655;28;34291;-76
2022/09/09 06:08:38;;;;;;;9.27;1.27;;;16.90;28.30;;;;;;5011736;28;34079;-78
2022/09/09 06:11:07;;;;;;;5.60;1.33;;;16.80;27.90;;;;;;5027444;28;35562;-76
2022/09/09 06:13:34;;;;;;;4.82;1.10;;;16.80;27.90;;;;;;5027686;28;34185;-76
2022/09/09 06:16:01;;;;;;;3.90;1.00;;;16.90;27.90;;;;;;5027531;28;34248;-76
2022/09/09 06:18:27;;;;;;;3.28;1.00;;;17.00;27.50;;;;;;5028072;28;34173;-75
2022/09/09 06:20:55;;;;;;;4.07;1.23;;;17.10;27.80;;;;;;5027358;28;35616;-76
2022/09/09 06:23:20;;;;;;;6.35;1.27;;;17.10;27.70;;;;;;5027336;28;34149;-77
2022/09/09 06:25:46;;;;;;;3.75;1.08;;;17.20;27.20;;;;;;5027969;28;34050;-76
2022/09/09 06:28:13;;;;;;;13.02;1.60;;;17.10;27.60;;;;;;5027538;28;34103;-76
2022/09/09 06:30:40;;;;;;;7.95;1.30;;;17.10;27.10;;;;;;5027590;28;34495;-74
2022/09/09 06:33:06;;;;;;;7.88;1.33;;;17.20;27.00;;;;;;5010886;28;34176;-77
2022/09/09 06:35:31;;;;;;;2.60;0.82;;;17.40;26.60;;;;;;5010897;28;34218;-75
2022/09/09 06:37:58;;;;;;;2.28;0.75;;;17.50;26.70;;;;;;5027924;28;34422;-77
2022/09/09 06:40:25;;;;;;;6.95;1.50;;;17.50;26.40;;;;;;5045912;28;34382;-77
2022/09/09 06:42:51;;;;;;;3.10;0.85;;;17.60;26.20;;;;;;5026841;28;34905;-78
2022/09/09 06:45:17;;;;;;;5.10;0.95;;;17.50;26.00;;;;;;5010965;28;34089;-75
2022/09/09 06:47:44;;;;;;;4.32;1.08;;;17.60;26.10;;;;;;5027432;28;34459;-75
2022/09/09 06:50:10;;;;;;;6.40;1.10;;;17.60;25.90;;;;;;5026911;28;35735;-77
2022/09/09 06:52:37;;;;;;;6.30;0.90;;;17.50;26.00;;;;;;5026974;28;34957;-77
2022/09/09 06:55:03;;;;;;;4.82;0.85;;;17.60;25.70;;;;;;5010788;28;34090;-77
2022/09/09 06:57:29;;;;;;;8.00;1.05;;;17.60;25.80;;;;;;4994364;28;34358;-76
2022/09/09 06:59:55;;;;;;;4.05;0.98;;;17.60;25.80;;;;;;5011666;28;35533;-77
2022/09/09 07:02:21;;;;;;;5.55;0.90;;;17.60;25.30;;;;;;5039432;28;34156;-77
2022/09/09 07:04:47;;;;;;;4.47;1.05;;;17.50;25.30;;;;;;5010678;28;34116;-75
2022/09/09 07:07:15;;;;;;;5.78;1.15;;;17.60;25.90;;;;;;4994272;28;34182;-77
2022/09/09 07:09:41;;;;;;;2.97;1.20;;;17.60;25.20;;;;;;5028499;28;36462;-76
2022/09/09 07:12:07;;;;;;;1.77;0.80;;;17.60;25.90;;;;;;5044579;28;34252;-78
2022/09/09 07:14:35;;;;;;;6.53;1.00;;;17.60;25.10;;;;;;5045891;28;34279;-78
2022/09/09 07:17:02;;;;;;;3.63;1.15;;;17.70;25.10;;;;;;5045897;28;34367;-79
2022/09/09 07:19:28;;;;;;;3.90;1.25;;;17.60;24.20;;;;;;5026904;28;36992;-76
2022/09/09 07:21:54;;;;;;;6.88;1.23;;;17.60;24.70;;;;;;5010872;28;34171;-77
2022/09/09 07:24:20;;;;;;;4.93;1.10;;;17.50;24.80;;;;;;4992552;28;34196;-77
2022/09/09 07:26:46;;;;;;;9.18;1.20;;;17.50;24.50;;;;;;4992071;28;34248;-77
2022/09/09 07:29:13;;;;;;;4.07;0.93;;;17.50;24.20;;;;;;5007359;28;36361;-76
2022/09/09 07:31:40;;;;;;;5.55;1.05;;;17.60;24.90;;;;;;4992472;28;34745;-78
2022/09/09 07:34:06;;;;;;;0.70;0.70;;;17.50;24.90;;;;;;5008225;28;34444;-77
2022/09/09 07:36:35;;;;;;;6.05;1.20;;;17.50;24.40;;;;;;5027690;28;33956;-78
2022/09/09 07:39:06;;;;;;;2.42;0.98;;;17.60;24.20;;;;;;5006724;28;35714;-76
2022/09/09 07:41:36;;;;;;;2.13;0.90;;;17.60;24.00;;;;;;5009835;28;34180;-78
2022/09/09 07:44:08;;;;;;;2.35;0.85;;;17.60;23.40;;;;;;4991544;28;34437;-77
2022/09/09 07:46:34;;;;;;;3.35;0.90;;;17.70;22.60;;;;;;4991002;28;34352;-77
2022/09/09 07:49:00;;;;;;;2.75;0.80;;;17.80;23.80;;;;;;4990472;28;35811;-79
2022/09/09 07:51:30;;;;;;;6.50;1.05;;;17.90;23.60;;;;;;5019972;28;34156;-77
2022/09/09 07:53:58;;;;;;;2.92;0.85;;;17.90;23.00;;;;;;5024359;28;34066;-77
2022/09/09 07:56:26;;;;;;;3.00;0.82;;;18.00;23.20;;;;;;5043594;28;34385;-77
2022/09/09 07:58:54;;;;;;;6.30;1.33;;;18.00;23.50;;;;;;5010094;28;35669;-77
2022/09/09 08:01:27;;;;;;;6.50;1.30;;;18.10;23.30;;;;;;5025780;28;34465;-77
2022/09/09 08:04:04;;;;;;;2.35;1.55;;;18.20;23.10;;;;;;5046033;28;34360;-77
2022/09/09 08:06:33;;;;;;;3.53;1.02;;;18.20;22.40;;;;;;5008110;28;34434;-77
2022/09/09 08:08:59;;;;;;;3.05;0.93;;;18.20;23.40;;;;;;5027940;28;34112;-77
2022/09/09 08:11:28;;;;;;;4.80;1.10;;;18.10;22.80;;;;;;5025363;28;34103;-77
2022/09/09 08:13:55;;;;;;;6.50;1.13;;;18.10;23.20;;;;;;5043203;28;34206;-77
2022/09/09 08:16:23;;;;;;;8.20;1.60;;;18.10;23.00;;;;;;5043302;28;34271;-77
2022/09/09 08:18:51;;;;;;;6.38;1.20;;;18.10;23.10;;;;;;5025863;28;36892;-77
2022/09/09 08:21:20;;;;;;;2.80;1.05;;;18.10;23.10;;;;;;5024185;28;34722;-79
2022/09/09 08:23:48;;;;;;;9.32;1.33;;;18.20;22.80;;;;;;5025624;28;34196;-77
2022/09/09 08:26:16;;;;;;;4.25;0.98;;;18.20;23.00;;;;;;5043536;28;34255;-77
2022/09/09 08:28:43;;;;;;;4.57;1.13;;;18.20;22.90;;;;;;5022057;28;35865;-78
2022/09/09 08:31:12;;;;;;;6.38;1.05;;;18.30;22.90;;;;;;5025699;28;34148;-78
2022/09/09 08:33:39;;;;;;;5.40;0.98;;;18.30;22.60;;;;;;5028867;28;34165;-76
2022/09/09 08:36:06;;;;;;;5.50;1.23;;;18.30;22.90;;;;;;5025865;28;34088;-79
2022/09/09 08:38:33;;;;;;;6.40;1.17;;;18.40;22.60;;;;;;5026613;28;36209;-77
2022/09/09 08:41:22;;;;;;;4.00;0.88;;;18.40;22.50;;;;;;5028299;28;34180;-77
2022/09/09 08:43:50;;;;;;;7.13;1.10;;;18.60;21.60;;;;;;5022207;28;34189;-77
2022/09/09 08:46:29;;;;;;;4.30;1.02;;;18.70;22.10;;;;;;5036319;28;34185;-76
2022/09/09 08:49:11;;;;;;;4.07;1.15;;;18.80;22.00;;;;;;5014852;28;36010;-76
2022/09/09 08:51:37;;;;;;;1.85;0.90;;;18.80;19.80;;;;;;5021688;28;34324;-76
2022/09/09 08:54:04;;;;;;;4.50;1.35;;;18.90;22.40;;;;;;5005229;28;36104;-76
2022/09/09 08:56:33;;;;;;;2.42;0.90;;;19.00;21.30;;;;;;5022704;28;34509;-76
2022/09/09 08:59:02;;;;;;;1.95;0.70;;;19.00;20.80;;;;;;4998617;28;35732;-78
2022/09/09 09:01:51;;;;;;;3.42;0.63;;;18.90;21.00;;;;;;5041926;28;34275;-79
2022/09/09 09:04:52;;;;;;;3.63;1.08;;;18.80;18.60;;;;;;5017065;28;33840;-77
2022/09/09 09:07:31;;;;;;;3.00;0.90;;;18.90;19.20;;;;;;4995062;28;34200;-78
2022/09/09 09:10:30;;;;;;;5.50;1.08;;;18.70;19.40;;;;;;4993401;28;35886;-77
2022/09/09 09:12:56;;;;;;;2.92;1.25;;;18.90;19.10;;;;;;5021416;28;34174;-76
2022/09/09 09:15:26;;;;;;;3.92;1.00;;;18.90;20.60;;;;;;5022604;28;34264;-77
2022/09/09 09:17:53;;;;;;;6.65;0.88;;;18.80;21.20;;;;;;5014089;28;34373;-77
2022/09/09 09:20:30;;;;;;;3.60;1.00;;;18.70;20.90;;;;;;5025244;28;35927;-78
2022/09/09 09:23:02;;;;;;;5.65;1.08;;;18.70;21.00;;;;;;5031759;28;34284;-79
2022/09/09 09:25:35;;;;;;;2.90;0.88;;;18.60;21.20;;;;;;5015665;28;34031;-75
2022/09/09 09:28:18;;;;;;;3.40;1.13;;;18.50;22.00;;;;;;5009638;28;34212;-77
2022/09/09 09:31:05;;;;;;;4.25;1.30;;;18.50;22.40;;;;;;5028822;28;36511;-78
2022/09/09 09:33:49;;;;;;;2.22;1.00;;;18.50;22.00;;;;;;5027902;28;34244;-79
2022/09/09 09:36:15;;;;;;;2.65;0.98;;;18.60;21.20;;;;;;5049797;28;34105;-78
2022/09/09 09:38:59;;;;;;;6.03;1.10;;;18.60;21.80;;;;;;5014325;28;34143;-79
2022/09/09 09:41:31;;;;;;;4.40;1.08;;;18.60;21.30;;;;;;5030957;28;35609;-79
2022/09/09 09:43:56;;;;;;;6.13;1.10;;;18.90;21.50;;;;;;5017699;28;34061;-80
2022/09/09 09:46:25;;;;;;;4.03;1.15;;;19.00;20.90;;;;;;5002567;28;34272;-78
2022/09/09 09:49:09;;;;;;;1.73;0.70;;;19.20;20.80;;;;;;4993678;28;34619;-77
2022/09/09 09:51:36;;;;;;;2.90;0.85;;;19.30;19.30;;;;;;5011698;28;35742;-79
2022/09/09 09:54:22;;;;;;;4.35;1.00;;;19.30;19.40;;;;;;4994205;28;34293;-78
2022/09/09 09:56:49;;;;;;;2.05;0.85;;;19.50;20.50;;;;;;5012325;28;34179;-79
2022/09/09 09:59:39;;;;;;;2.83;0.90;;;19.60;20.30;;;;;;5001567;28;34194;-78
2022/09/09 10:02:18;;;;;;;4.70;1.20;;;19.60;18.50;;;;;;4983045;28;35527;-79
2022/09/09 10:04:45;;;;;;;3.58;1.08;;;19.70;19.80;;;;;;5011620;28;34194;-79
2022/09/09 10:07:17;;;;;;;3.35;0.85;;;19.70;20.00;;;;;;5008780;28;34107;-78
2022/09/09 10:09:43;;;;;;;6.07;3.85;;;19.90;20.00;;;;;;4996086;28;34487;-77
2022/09/09 10:12:26;;;;;;;2.70;0.90;;;20.10;20.10;;;;;;5009308;28;36703;-80
2022/09/09 10:15:10;;;;;;;5.68;1.20;;;19.80;17.10;;;;;;5010328;28;34169;-78
2022/09/09 10:18:04;;;;;;;3.50;0.88;;;20.10;18.70;;;;;;4993872;28;34135;-79
2022/09/09 10:21:00;;;;;;;4.82;0.95;;;20.40;18.50;;;;;;5013885;28;34515;-77
2022/09/09 10:23:54;;;;;;;3.33;0.93;;;20.60;17.40;;;;;;5023801;28;34422;-78
2022/09/09 10:26:49;;;;;;;4.13;1.02;;;20.90;17.00;;;;;;5001981;28;34436;-77
2022/09/09 10:29:37;;;;;;;4.03;1.20;;;21.00;14.50;;;;;;4989629;28;34247;-77
2022/09/09 10:32:28;;;;;;;1.90;0.80;;;21.10;16.70;;;;;;5006007;28;34324;-78
2022/09/09 10:35:15;;;;;;;5.60;0.90;;;21.00;16.30;;;;;;5010507;28;34419;-78
2022/09/09 10:38:01;;;;;;;8.77;0.98;;;21.00;14.60;;;;;;5011134;28;34246;-77
2022/09/09 10:40:33;;;;;;;4.97;0.90;;;21.10;16.50;;;;;;5008518;28;34322;-80
2022/09/09 10:43:12;;;;;;;1.15;0.63;;;21.20;15.70;;;;;;5009270;28;34103;-78
2022/09/09 10:45:55;;;;;;;2.13;0.77;;;21.50;16.80;;;;;;5010781;28;35823;-79
2022/09/09 10:48:37;;;;;;;1.85;0.68;;;21.90;15.50;;;;;;4996652;28;34546;-78
2022/09/09 10:51:23;;;;;;;4.70;0.95;;;21.90;12.80;;;;;;5010430;28;34203;-80
2022/09/09 10:54:17;;;;;;;1.65;0.65;;;21.90;13.40;;;;;;5016281;28;34368;-79
2022/09/09 10:56:48;;;;;;;1.60;0.90;;;21.90;12.50;;;;;;4993634;28;35792;-81
2022/09/09 10:59:22;;;;;;;2.88;0.70;;;22.10;14.10;;;;;;5028686;28;34105;-81
2022/09/09 11:01:56;;;;;;;5.43;0.60;;;22.40;13.80;;;;;;5030144;28;34181;-79
2022/09/09 11:04:32;;;;;;;3.28;0.88;;;22.50;14.50;;;;;;5029080;28;34147;-78
2022/09/09 11:07:04;;;;;;;1.95;1.00;;;22.60;13.30;;;;;;5009762;28;35657;-79
2022/09/09 11:09:37;;;;;;;1.67;1.00;;;22.70;14.30;;;;;;5046166;28;34449;-80
2022/09/09 11:12:03;;;;;;;3.03;0.77;;;22.80;13.00;;;;;;5048304;28;34391;-77
2022/09/09 11:14:42;;;;;;;3.45;0.90;;;22.70;15.00;;;;;;5013146;28;34382;-77
2022/09/09 11:17:16;;;;;;;4.13;1.00;;;22.60;12.20;;;;;;5029132;28;35622;-78
2022/09/09 11:19:44;;;;;;;4.88;0.60;;;22.70;12.10;;;;;;5027382;28;34418;-77
2022/09/09 11:22:40;;;;;;;1.52;0.50;;;22.60;13.90;;;;;;5012286;28;34104;-78
2022/09/09 11:25:26;;;;;;;2.45;0.90;;;22.60;11.70;;;;;;5023666;28;34600;-76
2022/09/09 11:28:24;;;;;;;5.30;1.05;;;22.20;11.20;;;;;;5046597;28;34045;-76
2022/09/09 11:31:14;;;;;;;1.45;0.93;;;22.20;11.00;;;;;;5030309;28;34211;-78
2022/09/09 11:34:15;;;;;;;1.58;0.40;;;22.20;10.50;;;;;;5029172;28;34229;-78
2022/09/09 11:37:12;;;;;;;1.58;0.60;;;22.50;12.10;;;;;;5016691;28;34154;-76
2022/09/09 11:40:13;;;;;;;2.15;0.77;;;22.60;9.80;;;;;;5026992;28;35845;-77
2022/09/09 11:42:39;;;;;;;1.23;0.68;;;22.70;10.90;;;;;;5033774;28;34248;-77
2022/09/09 11:45:24;;;;;;;2.45;0.80;;;22.70;13.70;;;;;;5027757;28;34230;-77
2022/09/09 11:47:56;;;;;;;3.05;0.60;;;22.50;9.50;;;;;;5042496;28;34153;-78
2022/09/09 11:50:34;;;;;;;3.55;0.90;;;22.60;11.90;;;;;;5027671;28;35623;-79
2022/09/09 11:53:19;;;;;;;2.22;0.75;;;22.80;11.70;;;;;;5046954;28;34241;-77
2022/09/09 11:55:45;;;;;;;2.90;0.95;;;22.80;11.90;;;;;;5029182;28;34190;-77
2022/09/09 11:58:19;;;;;;;3.97;0.82;;;22.80;12.40;;;;;;5028664;28;34351;-78
2022/09/09 12:00:47;;;;;;;1.52;0.60;;;22.80;8.60;;;;;;5028125;28;36527;-75
2022/09/09 12:03:44;;;;;;;1.90;1.02;;;23.10;11.70;;;;;;5045841;28;34117;-79
2022/09/09 12:06:26;;;;;;;1.83;0.60;;;23.10;6.90;;;;;;5016464;28;34209;-76
2022/09/09 12:08:57;;;;;;;1.08;0.60;;;23.10;9.80;;;;;;5037590;28;34329;-82
2022/09/09 12:11:30;;;;;;;2.13;0.47;;;22.80;9.40;;;;;;5028391;28;36633;-77
2022/09/09 12:14:00;;;;;;;2.08;0.57;;;22.80;10.30;;;;;;5046042;28;34035;-77
2022/09/09 12:16:37;;;;;;;3.65;0.90;;;22.70;12.10;;;;;;5030615;28;34200;-77
2022/09/09 12:19:14;;;;;;;2.95;0.60;;;22.70;8.90;;;;;;5010300;28;34187;-75
2022/09/09 12:22:04;;;;;;;5.65;0.65;;;23.00;11.70;;;;;;5029824;28;35003;-76
2022/09/09 12:24:50;;;;;;;2.25;0.65;;;22.90;8.70;;;;;;5028239;28;34299;-76
2022/09/09 12:27:34;;;;;;;6.28;0.80;;;22.90;8.50;;;;;;5027972;28;34343;-76
2022/09/09 12:30:09;;;;;;;2.95;0.68;;;22.80;8.90;;;;;;5028116;28;34122;-76
2022/09/09 12:32:35;;;;;;;2.13;0.60;;;22.70;10.90;;;;;;5029766;28;36536;-77
2022/09/09 12:35:11;;;;;;;3.55;0.70;;;22.40;12.00;;;;;;5029034;28;34469;-79
2022/09/09 12:37:49;;;;;;;4.57;1.33;;;22.00;11.40;;;;;;5030135;28;34136;-78
2022/09/09 12:55:20;;;;;;;1.85;0.73;;;20.60;15.50;;;;;;5055410;28;34179;-79
2022/09/09 12:57:59;;;;;;;5.20;1.00;;;20.80;16.30;;;;;;5036685;28;34364;-79
2022/09/09 13:00:28;;;;;;;5.43;0.80;;;20.80;15.80;;;;;;5056173;28;34395;-81
2022/09/09 13:02:59;;;;;;;1.33;0.55;;;20.80;15.90;;;;;;5055086;28;34167;-80
2022/09/09 13:05:36;;;;;;;0.65;0.65;;;20.70;15.90;;;;;;5034695;28;35726;-78
2022/09/09 13:08:05;;;;;;;1.25;0.50;;;20.50;16.10;;;;;;5037746;28;34456;-77
2022/09/09 13:10:38;;;;;;;1.80;0.80;;;20.40;16.20;;;;;;5051199;28;34333;-78
2022/09/09 13:13:13;;;;;;;2.42;0.68;;;20.20;16.70;;;;;;5070732;28;34153;-82
2022/09/09 13:15:39;;;;;;;1.58;0.80;;;20.20;16.70;;;;;;5052539;28;34271;-77
2022/09/09 13:18:11;;;;;;;2.50;1.08;;;20.20;17.00;;;;;;5070736;28;34170;-77
2022/09/09 13:20:37;;;;;;;3.03;0.82;;;20.10;17.40;;;;;;5054372;28;34180;-78
2022/09/09 13:23:03;;;;;;;1.25;0.88;;;20.00;17.10;;;;;;5053815;28;34139;-78
2022/09/09 13:25:30;;;;;;;2.72;0.73;;;19.80;17.30;;;;;;5036767;28;34693;-77
2022/09/09 13:28:02;;;;;;;2.22;0.65;;;19.70;17.50;;;;;;5055417;28;34197;-80
2022/09/09 13:30:35;;;;;;;2.80;0.82;;;19.60;17.70;;;;;;5048211;28;34559;-79
2022/09/09 13:33:06;;;;;;;1.15;0.63;;;19.40;17.80;;;;;;5054117;28;34292;-79